createdAt,value
2023-11-11T00:01:05.968Z,7.53
2023-11-11T00:03:32.995Z,1.80
2023-11-11T00:05:59.499Z,2.07
2023-11-11T00:08:25.913Z,2.00
2023-11-11T00:10:52.815Z,2.20
2023-11-11T00:13:20.935Z,2.63
2023-11-11T00:15:47.824Z,1.90
2023-11-11T00:18:17.473Z,1.57
2023-11-11T00:20:43.887Z,4.10
2023-11-11T00:23:10.323Z,4.07
2023-11-11T00:25:36.766Z,4.07
2023-11-11T00:28:03.362Z,5.27
2023-11-11T00:30:31.730Z,4.23
2023-11-11T00:32:58.212Z,3.73
2023-11-11T00:35:24.670Z,3.90
2023-11-11T00:37:51.077Z,3.27
2023-11-11T00:40:17.504Z,5.63
2023-11-11T00:42:44.009Z,3.53
2023-11-11T00:45:11.140Z,4.37
2023-11-11T00:47:37.663Z,3.70
2023-11-11T00:50:06.178Z,4.20
2023-11-11T00:52:35.097Z,3.93
2023-11-11T00:55:01.862Z,4.57
2023-11-11T00:57:28.350Z,4.20
2023-11-11T00:59:54.839Z,3.97
2023-11-11T01:02:21.289Z,3.80
2023-11-11T01:04:47.708Z,5.03
2023-11-11T01:07:14.723Z,5.40
2023-11-11T01:09:42.268Z,6.20
2023-11-11T01:12:09.121Z,8.53
2023-11-11T01:14:36.046Z,9.97
2023-11-11T01:17:05.959Z,11.03
2023-11-11T01:19:32.436Z,9.80
2023-11-11T01:21:58.922Z,26.10
2023-11-11T01:24:25.505Z,14.70
2023-11-11T01:26:52.256Z,18.00
2023-11-11T01:29:18.713Z,18.27
2023-11-11T01:31:45.219Z,23.83
2023-11-11T01:34:11.664Z,23.30
2023-11-11T01:36:38.090Z,22.43
2023-11-11T01:39:06.147Z,30.37
2023-11-11T01:41:32.705Z,23.20
2023-11-11T01:43:59.158Z,26.60
2023-11-11T01:46:26.200Z,24.33
2023-11-11T01:48:53.357Z,23.57
2023-11-11T01:51:21.258Z,26.27
2023-11-11T01:53:47.886Z,27.17
2023-11-11T01:56:14.611Z,26.37
2023-11-11T01:58:42.413Z,29.77
2023-11-11T02:01:09.044Z,35.90
2023-11-11T02:03:36.475Z,27.93
2023-11-11T02:06:03.695Z,29.13
2023-11-11T02:08:34.668Z,33.83
2023-11-11T02:11:06.145Z,40.97
2023-11-11T02:13:36.296Z,39.67
2023-11-11T02:16:07.006Z,45.63
2023-11-11T02:18:34.006Z,36.40
2023-11-11T02:21:00.690Z,32.87
2023-11-11T02:23:38.616Z,40.87
2023-11-11T02:26:06.168Z,32.33
2023-11-11T02:28:32.754Z,36.47
2023-11-11T02:30:59.266Z,35.20
2023-11-11T02:33:26.081Z,35.03
2023-11-11T02:35:52.947Z,38.03
2023-11-11T02:38:19.717Z,37.03
2023-11-11T02:40:46.125Z,39.30
2023-11-11T02:43:12.712Z,35.77
2023-11-11T02:45:39.339Z,39.07
2023-11-11T02:48:07.584Z,43.10
2023-11-11T02:50:34.256Z,32.20
2023-11-11T02:53:00.700Z,35.90
2023-11-11T02:55:27.116Z,39.70
2023-11-11T02:57:54.022Z,34.50
2023-11-11T03:00:22.332Z,37.37
2023-11-11T03:02:48.960Z,32.20
2023-11-11T03:05:15.399Z,40.80
2023-11-11T03:07:41.810Z,37.93
2023-11-11T03:10:10.948Z,31.43
2023-11-11T03:12:37.883Z,35.77
2023-11-11T03:15:04.753Z,35.87
2023-11-11T03:17:32.233Z,33.80
2023-11-11T03:20:04.054Z,36.97
2023-11-11T03:22:30.534Z,32.13
2023-11-11T03:24:57.478Z,32.93
2023-11-11T03:27:23.898Z,27.37
2023-11-11T03:29:50.406Z,32.53
2023-11-11T03:32:16.875Z,34.23
2023-11-11T03:34:43.341Z,30.23
2023-11-11T03:37:09.750Z,29.07
2023-11-11T03:39:36.244Z,36.80
2023-11-11T03:42:02.750Z,36.03
2023-11-11T03:44:29.185Z,27.50
2023-11-11T03:46:56.458Z,42.93
2023-11-11T03:49:22.951Z,25.10
2023-11-11T03:51:49.451Z,29.00
2023-11-11T03:54:15.870Z,28.37
2023-11-11T03:56:42.329Z,27.63
2023-11-11T03:59:08.759Z,26.40
2023-11-11T04:01:35.454Z,32.90
2023-11-11T04:04:02.303Z,40.10
2023-11-11T04:06:28.798Z,30.60
2023-11-11T04:08:55.255Z,33.20
2023-11-11T04:11:23.160Z,27.30
2023-11-11T04:13:50.440Z,32.03
2023-11-11T04:16:17.074Z,27.97
2023-11-11T04:18:43.660Z,25.57
2023-11-11T04:21:12.355Z,29.07
2023-11-11T04:23:41.320Z,38.10
2023-11-11T04:26:07.972Z,26.00
2023-11-11T04:28:34.703Z,25.53
2023-11-11T04:31:01.156Z,15.47
2023-11-11T04:33:29.785Z,18.40
2023-11-11T04:35:56.490Z,27.87
2023-11-11T04:38:25.803Z,14.77
2023-11-11T04:40:54.433Z,19.03
2023-11-11T04:43:20.863Z,22.57
2023-11-11T04:45:47.484Z,16.77
2023-11-11T04:48:14.038Z,18.77
2023-11-11T04:50:40.560Z,15.60
2023-11-11T04:53:08.307Z,32.43
2023-11-11T04:55:34.742Z,23.43
2023-11-11T04:58:01.332Z,13.63
2023-11-11T05:00:27.816Z,16.67
2023-11-11T05:02:54.345Z,11.90
2023-11-11T05:05:21.631Z,15.67
2023-11-11T05:07:48.054Z,12.03
2023-11-11T05:10:14.905Z,10.37
2023-11-11T05:12:42.157Z,14.30
2023-11-11T05:15:15.841Z,15.30
2023-11-11T05:17:44.467Z,13.50
2023-11-11T05:20:12.125Z,13.30
2023-11-11T05:22:38.767Z,11.37
2023-11-11T05:25:06.351Z,11.23
2023-11-11T05:27:32.880Z,10.17
2023-11-11T05:30:01.226Z,9.50
2023-11-11T05:32:27.987Z,17.37
2023-11-11T05:34:58.875Z,14.20
2023-11-11T05:37:26.111Z,9.17
2023-11-11T05:39:52.566Z,9.30
2023-11-11T05:42:19.092Z,16.63
2023-11-11T05:44:45.537Z,14.07
2023-11-11T05:47:15.470Z,8.23
2023-11-11T05:49:42.009Z,14.00
2023-11-11T05:52:08.771Z,8.13
2023-11-11T05:54:35.370Z,8.67
2023-11-11T05:57:01.861Z,14.07
2023-11-11T05:59:28.325Z,7.00
2023-11-11T06:01:55.777Z,8.63
2023-11-11T06:04:22.455Z,6.70
2023-11-11T06:06:50.856Z,8.40
2023-11-11T06:09:20.093Z,4.63
2023-11-11T06:11:48.444Z,7.57
2023-11-11T06:14:19.084Z,3.20
2023-11-11T06:16:46.965Z,5.50
2023-11-11T06:19:14.013Z,3.67
2023-11-11T06:21:40.532Z,3.67
2023-11-11T06:24:07.367Z,5.03
2023-11-11T06:26:33.769Z,3.10
2023-11-11T06:29:00.229Z,2.30
2023-11-11T06:31:27.777Z,3.03
2023-11-11T06:33:54.603Z,3.13
2023-11-11T06:36:21.193Z,6.13
2023-11-11T06:38:47.771Z,4.03
2023-11-11T06:41:14.194Z,3.30
2023-11-11T06:43:40.661Z,4.17
2023-11-11T06:46:08.048Z,4.40
2023-11-11T06:48:35.271Z,5.40
2023-11-11T06:51:01.746Z,5.40
2023-11-11T06:53:28.178Z,6.67
2023-11-11T06:55:54.765Z,3.70
2023-11-11T06:58:21.818Z,3.03
2023-11-11T07:00:48.334Z,3.10
2023-11-11T07:03:14.897Z,3.30
2023-11-11T07:05:41.434Z,5.53
2023-11-11T07:08:08.189Z,3.67
2023-11-11T07:10:38.835Z,4.80
2023-11-11T07:13:06.033Z,5.90
2023-11-11T07:15:32.608Z,6.63
2023-11-11T07:17:59.069Z,8.00
2023-11-11T07:20:25.970Z,7.37
2023-11-11T07:22:55.628Z,8.73
2023-11-11T07:25:25.103Z,12.23
2023-11-11T07:27:51.568Z,14.53
2023-11-11T07:30:18.093Z,14.47
2023-11-11T07:32:53.528Z,14.27
2023-11-11T07:35:26.375Z,18.70
2023-11-11T07:37:53.710Z,15.23
2023-11-11T07:40:20.166Z,23.73
2023-11-11T07:42:46.672Z,13.83
2023-11-11T07:45:13.123Z,27.47
2023-11-11T07:47:42.610Z,16.23
2023-11-11T07:50:10.630Z,19.53
2023-11-11T07:52:37.137Z,12.63
2023-11-11T07:55:03.900Z,16.27
2023-11-11T08:00:01.950Z,15.10
2023-11-11T08:02:34.225Z,17.30
2023-11-11T08:05:00.680Z,20.13
2023-11-11T08:07:27.069Z,14.63
2023-11-11T08:09:53.465Z,18.60
2023-11-11T08:12:20.118Z,14.50
2023-11-11T08:14:46.821Z,19.43
2023-11-11T08:17:13.366Z,21.90
2023-11-11T08:19:39.957Z,22.37
2023-11-11T08:22:06.399Z,24.17
2023-11-11T08:24:32.853Z,17.57
2023-11-11T08:26:59.414Z,21.47
2023-11-11T08:29:25.820Z,16.50
2023-11-11T08:31:52.275Z,24.63
2023-11-11T08:34:18.746Z,17.50
2023-11-11T08:36:50.776Z,19.87
2023-11-11T08:39:21.764Z,19.57
2023-11-11T08:41:48.242Z,22.77
2023-11-11T08:44:14.680Z,29.00
2023-11-11T08:46:42.048Z,18.23
2023-11-11T08:49:08.662Z,20.57
2023-11-11T08:51:35.351Z,17.57
2023-11-11T08:54:01.887Z,20.47
2023-11-11T08:56:31.122Z,18.77
2023-11-11T08:58:57.599Z,18.23
2023-11-11T09:01:24.103Z,23.40
2023-11-11T09:03:51.081Z,20.70
2023-11-11T09:06:18.330Z,30.93
2023-11-11T09:08:44.998Z,26.37
2023-11-11T09:11:12.486Z,20.90
2023-11-11T09:13:39.490Z,35.00
2023-11-11T09:16:06.594Z,27.10
2023-11-11T09:18:33.204Z,24.43
2023-11-11T09:21:00.801Z,22.80
2023-11-11T09:23:27.617Z,30.17
2023-11-11T09:25:55.153Z,33.00
2023-11-11T09:28:21.568Z,27.00
2023-11-11T09:30:48.022Z,42.67
2023-11-11T09:33:15.683Z,22.13
2023-11-11T09:35:43.505Z,23.20
2023-11-11T09:38:10.982Z,34.73
2023-11-11T09:40:37.396Z,26.70
2023-11-11T09:43:04.193Z,30.00
2023-11-11T09:45:30.708Z,26.47
2023-11-11T09:48:01.977Z,29.70
2023-11-11T09:50:28.737Z,24.63
2023-11-11T09:52:57.687Z,24.23
2023-11-11T09:55:25.059Z,26.40
2023-11-11T09:57:53.160Z,28.27
2023-11-11T10:00:20.320Z,23.73
2023-11-11T10:02:47.049Z,21.97
2023-11-11T10:05:13.941Z,21.93
2023-11-11T10:07:41.432Z,25.17
2023-11-11T10:10:13.210Z,20.77
2023-11-11T10:12:41.214Z,22.03
2023-11-11T10:15:09.296Z,26.67
2023-11-11T10:17:40.852Z,24.13
2023-11-11T10:20:15.292Z,26.00
2023-11-11T10:22:47.206Z,33.23
2023-11-11T10:25:18.396Z,29.27
2023-11-11T10:27:52.063Z,26.90
2023-11-11T10:30:20.306Z,21.90
2023-11-11T10:32:49.901Z,27.47
2023-11-11T10:35:18.067Z,31.43
2023-11-11T10:37:45.595Z,23.87
2023-11-11T10:40:14.095Z,26.03
2023-11-11T10:42:41.746Z,25.57
2023-11-11T10:45:08.702Z,23.87
2023-11-11T10:47:37.790Z,25.40
2023-11-11T10:50:05.156Z,26.43
2023-11-11T10:52:33.920Z,16.17
2023-11-11T10:55:00.688Z,23.40
2023-11-11T10:57:30.486Z,20.00
2023-11-11T10:59:57.148Z,21.60
2023-11-11T11:02:25.138Z,34.30
2023-11-11T11:04:56.163Z,28.80
2023-11-11T11:07:33.286Z,31.37
2023-11-11T11:10:10.312Z,21.07
2023-11-11T11:12:46.141Z,24.37
2023-11-11T11:15:14.742Z,22.47
2023-11-11T11:17:45.026Z,22.43
2023-11-11T11:20:21.518Z,18.40
2023-11-11T11:22:48.444Z,28.43
2023-11-11T11:25:49.223Z,19.83
2023-11-11T11:28:17.172Z,16.17
2023-11-11T11:30:50.360Z,23.67
2023-11-11T11:33:32.030Z,16.90
2023-11-11T11:36:05.641Z,18.03
2023-11-11T11:38:41.922Z,21.07
2023-11-11T11:41:13.673Z,16.20
2023-11-11T11:43:43.013Z,19.23
2023-11-11T11:46:10.445Z,17.80
2023-11-11T11:48:39.268Z,11.77
2023-11-11T11:51:09.850Z,15.63
2023-11-11T11:53:42.669Z,18.03
2023-11-11T11:56:15.519Z,11.47
2023-11-11T11:58:46.314Z,13.87
2023-11-11T12:01:21.588Z,10.17
2023-11-11T12:03:49.182Z,11.20
2023-11-11T12:06:16.017Z,8.93
2023-11-11T12:09:10.488Z,16.57
2023-11-11T12:11:38.156Z,12.30
2023-11-11T12:14:08.942Z,14.57
2023-11-11T12:16:45.608Z,12.87
2023-11-11T12:19:23.027Z,10.23
2023-11-11T12:21:51.573Z,8.10
2023-11-11T12:24:19.915Z,14.87
2023-11-11T12:26:49.662Z,11.97
2023-11-11T12:29:16.926Z,6.93
2023-11-11T12:31:51.127Z,9.07
2023-11-11T12:34:25.364Z,5.00
2023-11-11T12:36:53.395Z,4.80
2023-11-11T12:39:26.583Z,5.60
2023-11-11T12:41:55.568Z,6.10
2023-11-11T12:44:24.855Z,6.07
2023-11-11T12:46:52.995Z,7.87
2023-11-11T12:49:22.328Z,6.37
2023-11-11T12:51:48.829Z,6.50
2023-11-11T12:54:17.679Z,9.53
2023-11-11T12:56:52.177Z,8.27
2023-11-11T12:59:21.521Z,7.93
2023-11-11T13:01:50.054Z,12.17
2023-11-11T13:04:18.171Z,10.20
2023-11-11T13:06:45.464Z,9.67
2023-11-11T13:09:19.805Z,8.63
2023-11-11T13:11:48.830Z,8.90
2023-11-11T13:14:20.104Z,12.27
2023-11-11T13:16:51.114Z,9.57
2023-11-11T13:19:19.073Z,9.60
2023-11-11T13:21:49.094Z,14.47
2023-11-11T13:24:16.073Z,11.93
2023-11-11T13:26:42.963Z,12.80
2023-11-11T13:29:09.544Z,16.77
2023-11-11T13:31:36.373Z,14.60
2023-11-11T13:34:03.144Z,10.00
2023-11-11T13:36:30.330Z,10.17
2023-11-11T13:38:59.283Z,10.17
2023-11-11T13:41:34.816Z,12.30
2023-11-11T13:44:01.466Z,10.27
2023-11-11T13:46:31.081Z,11.33
2023-11-11T13:48:59.730Z,11.93
2023-11-11T13:51:26.450Z,14.20
2023-11-11T13:53:56.530Z,11.77
2023-11-11T13:56:24.226Z,9.27
2023-11-11T13:58:56.114Z,8.73
2023-11-11T14:01:24.578Z,13.20
2023-11-11T14:03:51.833Z,9.53
2023-11-11T14:06:19.192Z,10.87
2023-11-11T14:08:45.775Z,8.67
2023-11-11T14:11:12.239Z,11.60
2023-11-11T14:13:40.608Z,8.57
2023-11-11T14:16:08.422Z,8.73
2023-11-11T14:18:34.979Z,8.90
2023-11-11T14:21:02.002Z,9.93
2023-11-11T14:23:28.686Z,9.17
2023-11-11T14:25:58.168Z,13.77
2023-11-11T14:28:24.997Z,9.47
2023-11-11T14:30:52.032Z,10.27
2023-11-11T14:33:22.065Z,8.90
2023-11-11T14:35:48.648Z,9.20
2023-11-11T14:38:16.296Z,9.60
2023-11-11T14:40:43.136Z,16.17
2023-11-11T14:43:09.716Z,12.03
2023-11-11T14:45:36.502Z,11.17
2023-11-11T14:48:03.383Z,9.70
2023-11-11T14:50:29.866Z,11.07
2023-11-11T14:52:56.384Z,9.47
2023-11-11T14:55:25.241Z,8.77
2023-11-11T14:57:53.762Z,13.13
2023-11-11T15:00:21.919Z,14.87
2023-11-11T15:02:48.556Z,9.10
2023-11-11T15:05:17.841Z,9.67
2023-11-11T15:07:46.570Z,9.97
2023-11-11T15:10:21.376Z,8.13
2023-11-11T15:12:51.913Z,12.90
2023-11-11T15:15:18.845Z,18.17
2023-11-11T15:17:46.243Z,15.60
2023-11-11T15:20:18.611Z,8.70
2023-11-11T15:22:52.128Z,9.07
2023-11-11T15:25:20.880Z,8.60
2023-11-11T15:27:49.358Z,11.33
2023-11-11T15:30:19.870Z,8.10
2023-11-11T15:32:46.596Z,8.97
2023-11-11T15:35:13.935Z,9.00
2023-11-11T15:37:40.529Z,8.00
2023-11-11T15:40:09.505Z,12.03
2023-11-11T15:42:39.882Z,9.17
2023-11-11T15:45:09.591Z,9.63
2023-11-11T15:47:36.772Z,12.23
2023-11-11T15:50:06.869Z,10.57
2023-11-11T15:52:33.446Z,8.13
2023-11-11T15:54:59.942Z,14.87
2023-11-11T15:57:26.402Z,7.23
2023-11-11T15:59:52.812Z,7.90
2023-11-11T16:02:19.550Z,8.37
2023-11-11T16:04:46.388Z,8.20
2023-11-11T16:07:12.949Z,7.10
2023-11-11T16:09:39.416Z,6.63
2023-11-11T16:12:08.197Z,7.03
2023-11-11T16:14:36.122Z,6.17
2023-11-11T16:17:02.607Z,7.33
2023-11-11T16:19:29.119Z,7.07
2023-11-11T16:21:55.673Z,7.13
2023-11-11T16:24:27.280Z,6.77
2023-11-11T16:26:55.122Z,7.83
2023-11-11T16:29:21.748Z,8.23
2023-11-11T16:31:48.144Z,10.67
2023-11-11T16:34:20.357Z,7.80
2023-11-11T16:36:46.831Z,9.57
2023-11-11T16:39:16.603Z,13.63
2023-11-11T16:41:47.958Z,12.57
2023-11-11T16:44:14.418Z,9.23
2023-11-11T16:46:41.407Z,13.60
2023-11-11T16:49:07.853Z,11.00
2023-11-11T16:51:34.291Z,14.93
2023-11-11T16:54:00.696Z,9.50
2023-11-11T16:56:27.089Z,9.77
2023-11-11T16:58:53.921Z,11.77
2023-11-11T17:01:20.447Z,9.47
2023-11-11T17:03:46.947Z,10.30
2023-11-11T17:06:13.489Z,12.80
2023-11-11T17:08:40.568Z,9.97
2023-11-11T17:11:09.610Z,9.30
2023-11-11T17:13:39.117Z,9.00
2023-11-11T17:16:06.133Z,10.00
2023-11-11T17:18:32.629Z,14.23
2023-11-11T17:20:59.030Z,8.13
2023-11-11T17:23:25.400Z,8.33
2023-11-11T17:25:51.761Z,8.73
2023-11-11T17:28:18.299Z,8.10
2023-11-11T17:30:45.447Z,8.60
2023-11-11T17:33:26.010Z,11.90
2023-11-11T17:35:59.199Z,15.63
2023-11-11T17:38:25.575Z,11.30
2023-11-11T17:40:51.940Z,10.20
2023-11-11T17:43:18.344Z,18.07
2023-11-11T17:45:44.754Z,8.70
2023-11-11T17:48:11.210Z,8.93
2023-11-11T17:50:37.724Z,16.23
2023-11-11T17:53:16.088Z,9.43
2023-11-11T17:55:45.072Z,11.90
2023-11-11T17:58:11.486Z,8.93
2023-11-11T18:00:37.894Z,8.97
2023-11-11T18:03:04.582Z,9.37
2023-11-11T18:05:34.585Z,10.23
2023-11-11T18:08:02.745Z,9.03
2023-11-11T18:10:29.619Z,8.60
2023-11-11T18:12:56.121Z,13.07
2023-11-11T18:15:22.507Z,8.53
2023-11-11T18:17:50.110Z,8.97
2023-11-11T18:20:16.656Z,8.70
2023-11-11T18:22:43.180Z,8.47
2023-11-11T18:25:11.153Z,8.17
2023-11-11T18:27:38.626Z,8.37
2023-11-11T18:30:06.966Z,9.60
2023-11-11T18:32:33.554Z,10.80
2023-11-11T18:35:01.315Z,16.87
2023-11-11T18:37:27.816Z,16.53
2023-11-11T18:39:54.569Z,9.93
2023-11-11T18:42:21.064Z,13.00
2023-11-11T18:44:47.529Z,13.30
2023-11-11T18:47:14.059Z,10.50
2023-11-11T18:49:40.506Z,11.47
2023-11-11T18:52:07.190Z,16.37
2023-11-11T18:54:33.724Z,12.30
2023-11-11T18:57:00.247Z,14.17
2023-11-11T18:59:26.757Z,17.33
2023-11-11T19:01:53.334Z,19.83
2023-11-11T19:04:19.843Z,11.07
2023-11-11T19:06:46.233Z,16.33
2023-11-11T19:09:12.661Z,13.43
2023-11-11T19:11:44.775Z,14.53
2023-11-11T19:14:12.647Z,21.20
2023-11-11T19:16:41.263Z,17.90
2023-11-11T19:19:07.789Z,22.43
2023-11-11T19:21:38.382Z,22.80
2023-11-11T19:24:09.954Z,17.47
2023-11-11T19:26:37.086Z,17.70
2023-11-11T19:29:03.817Z,18.00
2023-11-11T19:31:31.031Z,12.80
2023-11-11T19:33:57.613Z,17.53
2023-11-11T19:36:24.463Z,19.50
2023-11-11T19:38:51.008Z,14.03
2023-11-11T19:41:17.562Z,13.90
2023-11-11T19:43:46.975Z,16.70
2023-11-11T19:46:17.732Z,15.80
2023-11-11T19:48:45.637Z,13.87
2023-11-11T19:51:26.863Z,18.00
2023-11-11T19:53:55.390Z,12.50
2023-11-11T19:56:22.862Z,12.47
2023-11-11T19:58:49.857Z,12.77
2023-11-11T20:01:16.361Z,18.43
2023-11-11T20:03:42.994Z,14.67
2023-11-11T20:06:09.925Z,16.90
2023-11-11T20:08:36.494Z,13.67
2023-11-11T20:11:03.413Z,15.77
2023-11-11T20:13:29.916Z,14.10
2023-11-11T20:15:57.182Z,15.57
2023-11-11T20:18:23.615Z,13.87
2023-11-11T20:20:50.142Z,21.07
2023-11-11T20:23:16.528Z,14.50
2023-11-11T20:25:43.071Z,16.17
2023-11-11T20:28:09.620Z,16.50
2023-11-11T20:30:38.958Z,15.73
2023-11-11T20:33:10.585Z,14.07
2023-11-11T20:35:39.640Z,15.63
2023-11-11T20:38:06.757Z,22.07
2023-11-11T20:40:33.616Z,17.27
2023-11-11T20:43:00.099Z,17.37
2023-11-11T20:45:26.576Z,16.67
2023-11-11T20:47:53.077Z,16.50
2023-11-11T20:50:20.093Z,15.60
2023-11-11T20:52:48.952Z,20.40
2023-11-11T20:55:18.134Z,21.03
2023-11-11T20:57:44.835Z,18.27
2023-11-11T21:00:13.066Z,17.53
2023-11-11T21:02:42.992Z,18.37
2023-11-11T21:05:14.953Z,19.70
2023-11-11T21:07:43.270Z,17.77
2023-11-11T21:10:10.680Z,24.70
2023-11-11T21:12:37.086Z,15.17
2023-11-11T21:15:03.897Z,17.00
2023-11-11T21:17:31.224Z,20.57
2023-11-11T21:19:58.132Z,19.57
2023-11-11T21:22:24.735Z,19.90
2023-11-11T21:24:51.107Z,16.30
2023-11-11T21:27:17.504Z,17.10
2023-11-11T21:29:45.749Z,19.00
2023-11-11T21:32:14.306Z,18.57
2023-11-11T21:34:41.795Z,18.77
2023-11-11T21:37:09.297Z,19.33
2023-11-11T21:39:35.887Z,20.03
2023-11-11T21:42:02.360Z,22.40
2023-11-11T21:44:28.779Z,23.00
2023-11-11T21:46:55.421Z,14.57
2023-11-11T21:49:25.493Z,28.23
2023-11-11T21:51:52.181Z,19.37
2023-11-11T21:54:18.632Z,17.20
2023-11-11T21:56:45.141Z,16.93
2023-11-11T21:59:12.093Z,18.53
2023-11-11T22:01:43.228Z,25.33
2023-11-11T22:04:10.529Z,16.07
2023-11-11T22:06:37.691Z,16.13
2023-11-11T22:09:06.298Z,18.13
2023-11-11T22:11:34.132Z,14.57
2023-11-11T22:14:00.720Z,14.17
2023-11-11T22:16:27.214Z,13.10
2023-11-11T22:18:54.438Z,13.30
2023-11-11T22:21:20.899Z,12.20
2023-11-11T22:23:47.274Z,16.53
2023-11-11T22:26:18.232Z,11.87
2023-11-11T22:28:46.040Z,13.00
2023-11-11T22:31:12.863Z,19.90
2023-11-11T22:33:39.586Z,16.80
2023-11-11T22:36:08.545Z,14.53
2023-11-11T22:38:35.026Z,16.63
2023-11-11T22:41:01.439Z,16.93
2023-11-11T22:43:27.868Z,13.27
2023-11-11T22:45:54.276Z,15.53
2023-11-11T22:48:20.704Z,12.93
2023-11-11T22:50:47.144Z,11.03
2023-11-11T22:53:13.610Z,11.57
2023-11-11T22:55:40.084Z,12.60
2023-11-11T22:58:07.009Z,12.23
2023-11-11T23:00:33.448Z,13.80
2023-11-11T23:03:06.850Z,12.10
2023-11-11T23:05:35.034Z,13.57
2023-11-11T23:08:03.472Z,10.87
2023-11-11T23:10:31.761Z,11.13
2023-11-11T23:12:59.699Z,10.50
2023-11-11T23:15:27.113Z,11.93
2023-11-11T23:17:53.760Z,12.67
2023-11-11T23:20:20.345Z,13.03
2023-11-11T23:22:47.022Z,13.33
2023-11-11T23:25:14.072Z,13.03
2023-11-11T23:27:44.295Z,12.20
2023-11-11T23:30:11.296Z,16.47
2023-11-11T23:32:38.784Z,14.93
2023-11-11T23:35:05.874Z,18.77
2023-11-11T23:37:32.322Z,16.27
2023-11-11T23:39:58.733Z,13.53
2023-11-11T23:42:25.187Z,13.17
2023-11-11T23:44:51.766Z,14.77
2023-11-11T23:47:19.000Z,13.50
2023-11-11T23:49:45.492Z,14.87
2023-11-11T23:52:12.540Z,15.40
2023-11-11T23:54:39.002Z,19.67
2023-11-11T23:57:06.068Z,12.77
2023-11-11T23:59:32.562Z,14.63
